Time;durP1;ratioP1;P1;durP2;ratioP2;P2;SDS_P1;SDS_P2;PMS_P1;PMS_P2;Temp;Humidity;BMP_temperature;BMP_pressure;BME280_temperature;BME280_humidity;BME280_pressure;Samples;Min_cycle;Max_cycle;Signal;HPM_P1;HPM_P2
2021/03/11 00:01:07;;;;;;;;;;;;;;;10.49;30.21;100547.84;4823543;29;20047;-77
2021/03/11 00:03:35;;;;;;;;;;;;;;;10.46;30.92;100532.91;4826345;29;19944;-77
2021/03/11 00:06:02;;;;;;;;;;;;;;;10.45;30.55;100523.25;4822830;29;19928;-77
2021/03/11 00:08:30;;;;;;;;;;;;;;;10.44;30.32;100510.94;4818219;29;20452;-78
2021/03/11 00:10:57;;;;;;;;;;;;;;;10.40;30.39;100504.91;4824672;29;20303;-77
2021/03/11 00:13:24;;;;;;;;;;;;;;;10.44;31.05;100510.94;4826899;29;19933;-78
2021/03/11 00:15:51;;;;;;;;;;;;;;;10.40;30.76;100501.38;4821414;29;19933;-77
2021/03/11 00:18:18;;;;;;;;;;;;;;;10.38;30.67;100501.41;4828363;29;19937;-77
2021/03/11 00:20:45;;;;;;;;;;;;;;;10.37;30.44;100486.47;4813510;29;19939;-77
2021/03/11 00:23:32;;;;;;;;;;;;;;;10.34;30.14;100481.25;4820114;29;19937;-76
2021/03/11 00:25:58;;;;;;;;;;;;;;;10.32;30.79;100479.56;4826954;29;19933;-76
2021/03/11 00:28:25;;;;;;;;;;;;;;;10.29;30.79;100472.59;4825482;29;19933;-77
2021/03/11 00:30:54;;;;;;;;;;;;;;;10.27;30.11;100464.69;4825424;29;19933;-77
2021/03/11 00:33:21;;;;;;;;;;;;;;;10.25;30.55;100447.16;4824240;29;20998;-77
2021/03/11 00:35:48;;;;;;;;;;;;;;;10.23;30.50;100449.84;4802751;29;19949;-76
2021/03/11 00:38:15;;;;;;;;;;;;;;;10.22;30.77;100447.25;4824652;29;19968;-77
2021/03/11 00:40:43;;;;;;;;;;;;;;;10.20;30.87;100447.28;4824039;29;19929;-78
2021/03/11 00:43:12;;;;;;;;;;;;;;;10.18;30.87;100450.88;4811092;29;20008;-77
2021/03/11 00:45:39;;;;;;;;;;;;;;;10.15;30.87;100446.56;4823479;29;19929;-77
2021/03/11 00:48:06;;;;;;;;;;;;;;;10.17;30.25;100422.75;4822541;29;19966;-77
2021/03/11 00:50:33;;;;;;;;;;;;;;;10.13;30.88;100433.38;4829460;29;20019;-77
2021/03/11 00:53:00;;;;;;;;;;;;;;;10.12;30.95;100423.75;4827361;29;20258;-77
2021/03/11 00:55:30;;;;;;;;;;;;;;;10.10;30.27;100417.63;4828151;29;19943;-76
2021/03/11 00:57:59;;;;;;;;;;;;;;;10.09;30.32;100413.25;4828134;29;19937;-77
2021/03/11 01:00:30;;;;;;;;;;;;;;;10.09;30.59;100409.75;4824909;29;19933;-77
2021/03/11 01:03:04;;;;;;;;;;;;;;;10.07;30.69;100406.28;4822391;29;19936;-77
2021/03/11 01:05:40;;;;;;;;;;;;;;;10.05;30.76;100400.19;4825909;29;19929;-76
2021/03/11 01:08:15;;;;;;;;;;;;;;;10.04;30.91;100390.53;4826568;29;19932;-78
2021/03/11 01:10:42;;;;;;;;;;;;;;;10.03;30.32;100391.44;4825502;29;19933;-77
2021/03/11 01:13:10;;;;;;;;;;;;;;;9.99;30.39;100377.44;4829330;29;20310;-77
2021/03/11 01:15:38;;;;;;;;;;;;;;;9.95;30.18;100371.41;4827389;29;19932;-77
2021/03/11 01:18:05;;;;;;;;;;;;;;;9.93;30.68;100367.94;4824819;29;19933;-77
2021/03/11 01:20:33;;;;;;;;;;;;;;;9.92;30.64;100374.13;4809364;29;19964;-77
2021/03/11 01:23:00;;;;;;;;;;;;;;;9.91;30.47;100351.25;4826417;29;19943;-77
2021/03/11 01:25:27;;;;;;;;;;;;;;;9.89;30.85;100352.22;4827742;29;19940;-77
2021/03/11 01:27:54;;;;;;;;;;;;;;;9.87;31.12;100344.34;4827100;29;19933;-77
2021/03/11 01:30:22;;;;;;;;;;;;;;;9.86;30.58;100332.06;4825943;29;19933;-78
2021/03/11 01:32:50;;;;;;;;;;;;;;;9.85;30.89;100337.38;4822416;29;19929;-76
2021/03/11 01:35:17;;;;;;;;;;;;;;;9.83;30.72;100321.56;4825549;29;19937;-77
2021/03/11 01:37:44;;;;;;;;;;;;;;;9.82;31.20;100314.56;4812016;29;19937;-77
2021/03/11 01:40:11;;;;;;;;;;;;;;;9.79;30.99;100309.38;4828249;29;20628;-75
2021/03/11 01:42:38;;;;;;;;;;;;;;;9.78;31.08;100310.28;4829535;29;19929;-76
2021/03/11 01:45:06;;;;;;;;;;;;;;;9.76;30.96;100293.63;4822105;29;19956;-78
2021/03/11 01:47:34;;;;;;;;;;;;;;;9.73;30.84;100286.69;4820632;29;19992;-77
2021/03/11 01:50:05;;;;;;;;;;;;;;;9.73;31.36;100278.75;4828439;29;19937;-77
2021/03/11 01:52:33;;;;;;;;;;;;;;;9.71;31.45;100271.78;4823330;29;20486;-77
2021/03/11 01:55:00;;;;;;;;;;;;;;;9.69;31.20;100269.19;4829321;29;19937;-77
2021/03/11 01:57:28;;;;;;;;;;;;;;;9.70;30.92;100252.41;4828378;29;19937;-78
2021/03/11 01:59:55;;;;;;;;;;;;;;;9.67;31.06;100249.03;4823912;29;19962;-77
2021/03/11 02:02:24;;;;;;;;;;;;;;;9.64;31.62;100240.28;4824249;29;19936;-77
2021/03/11 02:04:52;;;;;;;;;;;;;;;9.62;31.50;100236.81;4824461;29;19941;-78
2021/03/11 02:07:19;;;;;;;;;;;;;;;9.62;31.50;100225.38;4824217;29;19929;-77
2021/03/11 02:09:46;;;;;;;;;;;;;;;9.60;31.45;100220.16;4829447;29;19968;-77
2021/03/11 02:12:18;;;;;;;;;;;;;;;9.57;31.75;100214.09;4813305;29;19928;-78
2021/03/11 02:14:53;;;;;;;;;;;;;;;9.56;31.80;100212.38;4819387;29;20363;-77
2021/03/11 02:17:20;;;;;;;;;;;;;;;9.54;32.35;100212.44;4809796;29;19933;-77
2021/03/11 02:20:00;;;;;;;;;;;;;;;9.52;32.02;100208.09;4826647;29;19956;-77
2021/03/11 02:22:36;;;;;;;;;;;;;;;9.49;32.27;100198.50;4828025;29;19971;-77
2021/03/11 02:25:05;;;;;;;;;;;;;;;9.46;32.99;100195.97;4826253;29;20408;-77
2021/03/11 02:27:47;;;;;;;;;;;;;;;9.43;32.61;100172.31;4806763;29;19936;-76
2021/03/11 02:30:15;;;;;;;;;;;;;;;9.39;32.50;100176.81;4819134;29;20003;-78
2021/03/11 02:32:43;;;;;;;;;;;;;;;9.35;33.29;100167.28;4826679;29;19933;-77
2021/03/11 02:35:11;;;;;;;;;;;;;;;9.30;33.99;100154.22;4824720;29;19936;-77
2021/03/11 02:37:40;;;;;;;;;;;;;;;9.28;33.88;100142.84;4822403;29;19937;-77
2021/03/11 02:40:09;;;;;;;;;;;;;;;9.26;33.91;100149.09;4827404;29;20027;-77
2021/03/11 02:42:38;;;;;;;;;;;;;;;9.21;33.78;100151.84;4820442;29;19935;-77
2021/03/11 02:45:07;;;;;;;;;;;;;;;9.21;34.23;100133.38;4827035;29;19958;-77
2021/03/11 02:47:36;;;;;;;;;;;;;;;9.17;34.15;100112.44;4826271;29;19933;-76
2021/03/11 02:50:04;;;;;;;;;;;;;;;9.13;34.18;100109.88;4822568;29;19958;-76
2021/03/11 02:52:34;;;;;;;;;;;;;;;9.11;34.40;100106.44;4813094;29;20000;-76
2021/03/11 02:55:20;;;;;;;;;;;;;;;9.09;34.76;100096.84;4821412;29;19933;-77
2021/03/11 02:57:48;;;;;;;;;;;;;;;9.06;34.97;100066.13;4827462;29;19962;-76
2021/03/11 03:00:16;;;;;;;;;;;;;;;9.03;34.76;100060.94;4827738;29;19992;-77
2021/03/11 03:02:44;;;;;;;;;;;;;;;9.01;35.34;100046.06;4810592;29;19928;-77
2021/03/11 03:05:15;;;;;;;;;;;;;;;8.98;35.42;100041.75;4824877;29;20032;-76
2021/03/11 03:07:44;;;;;;;;;;;;;;;8.96;35.86;100033.03;4826627;29;19929;-76
2021/03/11 03:10:11;;;;;;;;;;;;;;;8.91;35.53;100027.91;4825587;29;20530;-76
2021/03/11 03:12:39;;;;;;;;;;;;;;;8.90;35.76;100017.41;4820462;29;19971;-75
2021/03/11 03:15:07;;;;;;;;;;;;;;;8.88;35.94;100011.34;4826169;29;19933;-76
2021/03/11 03:17:34;;;;;;;;;;;;;;;8.84;36.24;99984.19;4809813;29;19940;-77
2021/03/11 03:20:06;;;;;;;;;;;;;;;8.83;36.21;99982.44;4823399;29;19940;-75
2021/03/11 03:22:34;;;;;;;;;;;;;;;8.78;36.78;99972.03;4824409;29;19929;-76
2021/03/11 03:25:06;;;;;;;;;;;;;;;8.75;36.47;99958.97;4825102;29;19937;-76
2021/03/11 03:27:33;;;;;;;;;;;;;;;8.75;36.97;99963.38;4829025;29;19964;-75
2021/03/11 03:30:00;;;;;;;;;;;;;;;8.73;36.74;99959.91;4826321;29;19939;-76
2021/03/11 03:32:27;;;;;;;;;;;;;;;8.70;37.03;99955.59;4823820;29;19936;-76
2021/03/11 03:34:55;;;;;;;;;;;;;;;8.68;37.06;99952.19;4825504;29;19933;-76
2021/03/11 03:37:22;;;;;;;;;;;;;;;8.65;36.79;99933.81;4821654;29;19931;-76
2021/03/11 03:39:49;;;;;;;;;;;;;;;8.65;36.82;99946.97;4819814;29;19932;-76
2021/03/11 03:42:17;;;;;;;;;;;;;;;8.60;36.72;99918.16;4823267;29;20007;-76
2021/03/11 03:44:46;;;;;;;;;;;;;;;8.58;36.91;99917.31;4825838;29;20023;-76
2021/03/11 03:47:15;;;;;;;;;;;;;;;8.57;37.32;99905.03;4824870;29;19935;-76
2021/03/11 03:49:42;;;;;;;;;;;;;;;8.56;37.33;99897.19;4826220;29;19933;-76
2021/03/11 03:52:09;;;;;;;;;;;;;;;8.52;37.52;99895.56;4818926;29;19933;-76
2021/03/11 03:54:39;;;;;;;;;;;;;;;8.49;37.64;99886.00;4806890;29;19932;-76
2021/03/11 03:57:10;;;;;;;;;;;;;;;8.48;37.59;99878.97;4826966;29;19933;-76
2021/03/11 03:59:38;;;;;;;;;;;;;;;8.46;37.98;99879.03;4822983;29;20464;-77
2021/03/11 04:02:06;;;;;;;;;;;;;;;8.43;38.45;99879.13;4824474;29;19937;-76
2021/03/11 04:04:35;;;;;;;;;;;;;;;8.40;37.99;99871.28;4818085;29;20052;-76
2021/03/11 04:07:03;;;;;;;;;;;;;;;8.40;38.53;99859.91;4820476;29;19929;-75
2021/03/11 04:09:31;;;;;;;;;;;;;;;8.37;38.07;99852.94;4812965;29;19940;-74
2021/03/11 04:11:59;;;;;;;;;;;;;;;8.34;38.48;99828.47;4822249;29;19937;-75
2021/03/11 04:14:27;;;;;;;;;;;;;;;8.31;38.59;99832.94;4805903;29;19932;-76
2021/03/11 04:16:54;;;;;;;;;;;;;;;8.29;38.64;99824.22;4824966;29;19928;-76
2021/03/11 04:19:23;;;;;;;;;;;;;;;8.27;38.71;99809.34;4809323;29;19965;-76
2021/03/11 04:21:50;;;;;;;;;;;;;;;8.25;38.51;99792.75;4825323;29;19933;-75
2021/03/11 04:24:17;;;;;;;;;;;;;;;8.22;38.84;99791.09;4828547;29;20320;-77
2021/03/11 04:26:45;;;;;;;;;;;;;;;8.22;39.09;99777.91;4829712;29;19929;-75
2021/03/11 04:29:13;;;;;;;;;;;;;;;8.21;39.11;99775.31;4826853;29;19932;-77
2021/03/11 04:31:41;;;;;;;;;;;;;;;8.18;39.38;99778.94;4831365;29;20005;-76
2021/03/11 04:34:08;;;;;;;;;;;;;;;8.16;38.93;99757.03;4824381;29;19948;-76
2021/03/11 04:36:35;;;;;;;;;;;;;;;8.15;39.02;99750.03;4825727;29;19936;-76
2021/03/11 04:39:03;;;;;;;;;;;;;;;8.12;39.23;99751.00;4830498;29;19932;-76
2021/03/11 04:41:31;;;;;;;;;;;;;;;8.11;39.75;99737.88;4831241;29;20335;-75
2021/03/11 04:44:00;;;;;;;;;;;;;;;8.09;39.39;99726.50;4828096;29;19937;-76
2021/03/11 04:46:29;;;;;;;;;;;;;;;8.06;39.69;99724.84;4828609;29;19933;-76
2021/03/11 04:48:56;;;;;;;;;;;;;;;8.06;39.59;99709.03;4815454;29;19937;-76
2021/03/11 04:51:23;;;;;;;;;;;;;;;8.04;39.69;99704.75;4825743;29;19936;-76
2021/03/11 04:53:52;;;;;;;;;;;;;;;8.01;39.66;99703.09;4813316;29;19933;-76
2021/03/11 04:56:20;;;;;;;;;;;;;;;8.00;39.89;99692.59;4829441;29;19933;-76
2021/03/11 04:58:48;;;;;;;;;;;;;;;7.98;40.06;99679.47;4828488;29;19928;-75
2021/03/11 05:01:17;;;;;;;;;;;;;;;7.95;40.17;99659.38;4820950;29;19987;-76
2021/03/11 05:03:46;;;;;;;;;;;;;;;7.93;39.81;99648.03;4822469;29;19979;-76
2021/03/11 05:06:13;;;;;;;;;;;;;;;7.91;40.20;99633.19;4828053;29;20002;-76
2021/03/11 05:08:40;;;;;;;;;;;;;;;7.88;40.50;99649.97;4828410;29;19943;-75
2021/03/11 05:11:07;;;;;;;;;;;;;;;7.88;40.36;99618.38;4830284;29;19954;-77
2021/03/11 05:13:34;;;;;;;;;;;;;;;7.86;40.56;99614.91;4829014;29;20673;-76
2021/03/11 05:16:01;;;;;;;;;;;;;;;7.85;40.70;99604.44;4822098;29;19993;-75
2021/03/11 05:18:28;;;;;;;;;;;;;;;7.84;40.55;99607.97;4811423;29;19939;-76
2021/03/11 05:20:56;;;;;;;;;;;;;;;7.81;40.67;99591.41;4825697;29;19971;-76
2021/03/11 05:23:23;;;;;;;;;;;;;;;7.79;40.81;99595.00;4831066;29;19928;-76
2021/03/11 05:25:52;;;;;;;;;;;;;;;7.78;41.04;99590.63;4830212;29;19932;-76
2021/03/11 05:28:19;;;;;;;;;;;;;;;7.79;40.71;99579.19;4809975;29;19937;-75
2021/03/11 05:30:45;;;;;;;;;;;;;;;7.77;40.79;99583.63;4825210;29;19952;-76
2021/03/11 05:33:12;;;;;;;;;;;;;;;7.75;40.79;99564.41;4811048;29;20364;-76
2021/03/11 05:35:39;;;;;;;;;;;;;;;7.72;40.75;99582.94;4827344;29;19929;-75
2021/03/11 05:38:07;;;;;;;;;;;;;;;7.69;41.16;99577.78;4827874;29;19953;-76
2021/03/11 05:40:38;;;;;;;;;;;;;;;7.67;41.22;99559.41;4810042;29;19963;-76
2021/03/11 05:43:06;;;;;;;;;;;;;;;7.66;41.54;99557.69;4829470;29;19932;-76
2021/03/11 05:45:33;;;;;;;;;;;;;;;7.63;41.34;99552.53;4824573;29;19928;-75
2021/03/11 05:48:00;;;;;;;;;;;;;;;7.61;41.81;99542.03;4826268;29;19932;-74
2021/03/11 05:50:27;;;;;;;;;;;;;;;7.59;41.71;99557.03;4820124;29;19933;-74
2021/03/11 05:52:56;;;;;;;;;;;;;;;7.58;41.41;99530.78;4756324;29;19933;-74
2021/03/11 05:55:24;;;;;;;;;;;;;;;7.58;41.88;99528.16;4781581;29;20040;-73
2021/03/11 05:57:52;;;;;;;;;;;;;;;7.56;42.04;99529.97;4778799;29;20513;-73
2021/03/11 06:00:20;;;;;;;;;;;;;;;7.53;41.54;99509.88;4775906;29;19933;-74
2021/03/11 06:02:53;;;;;;;;;;;;;;;7.54;41.74;99513.34;4776092;29;19943;-74
2021/03/11 06:05:21;;;;;;;;;;;;;;;7.53;42.05;99509.03;4776709;29;19932;-73
2021/03/11 06:07:49;;;;;;;;;;;;;;;7.46;42.20;99489.97;4782371;29;20411;-73
2021/03/11 06:10:18;;;;;;;;;;;;;;;7.50;42.24;99501.22;4772189;29;20012;-73
2021/03/11 06:12:47;;;;;;;;;;;;;;;7.49;41.80;99484.56;4778917;29;19947;-73
2021/03/11 06:15:18;;;;;;;;;;;;;;;7.48;42.31;99485.47;4756173;29;19937;-73
2021/03/11 06:17:48;;;;;;;;;;;;;;;7.45;42.32;99478.56;4763846;29;20827;-72
2021/03/11 06:20:16;;;;;;;;;;;;;;;7.45;42.59;99472.44;4779986;29;19933;-73
2021/03/11 06:22:43;;;;;;;;;;;;;;;7.43;42.29;99442.69;4782098;29;19936;-73
2021/03/11 06:25:11;;;;;;;;;;;;;;;7.41;42.44;99441.91;4783631;29;19936;-74
2021/03/11 06:27:49;;;;;;;;;;;;;;;7.40;42.73;99434.91;4771462;29;20278;-74
2021/03/11 06:30:30;;;;;;;;;;;;;;;7.37;43.02;99427.09;4764532;29;19979;-74
2021/03/11 06:32:58;;;;;;;;;;;;;;;7.36;43.01;99412.25;4757778;29;19937;-75
2021/03/11 06:35:26;;;;;;;;;;;;;;;7.32;43.15;99401.81;4768122;29;20426;-74
2021/03/11 06:37:53;;;;;;;;;;;;;;;7.32;43.40;99399.19;4781917;29;20281;-74
2021/03/11 06:40:21;;;;;;;;;;;;;;;7.32;43.56;99395.72;4783449;29;19948;-74
2021/03/11 06:42:49;;;;;;;;;;;;;;;7.34;43.39;99387.75;4774764;29;20196;-74
2021/03/11 06:45:22;;;;;;;;;;;;;;;7.35;43.02;99387.69;4767470;29;19995;-75
2021/03/11 06:47:49;;;;;;;;;;;;;;;7.35;43.80;99379.81;4784829;29;20096;-73
2021/03/11 06:50:26;;;;;;;;;;;;;;;7.34;43.67;99364.09;4761568;29;19944;-76
2021/03/11 06:53:05;;;;;;;;;;;;;;;7.31;43.76;99360.66;4772961;29;20422;-75
2021/03/11 06:55:33;;;;;;;;;;;;;;;7.29;43.98;99345.84;4781802;29;19992;-72
2021/03/11 06:58:25;;;;;;;;;;;;;;;7.30;43.86;99334.38;4777649;29;19992;-72
2021/03/11 07:01:03;;;;;;;;;;;;;;;7.29;44.18;99351.97;4782346;29;19936;-73
2021/03/11 07:03:38;;;;;;;;;;;;;;;7.27;44.27;99329.25;4776192;29;20650;-73
2021/03/11 07:06:06;;;;;;;;;;;;;;;7.26;44.18;99331.03;4777504;29;20024;-72
2021/03/11 07:08:33;;;;;;;;;;;;;;;7.28;44.17;99323.94;4779834;29;20034;-73
2021/03/11 07:11:04;;;;;;;;;;;;;;;7.24;44.69;99316.22;4816860;29;19944;-74
2021/03/11 07:13:40;;;;;;;;;;;;;;;7.23;44.56;99319.75;4821836;29;19944;-73
2021/03/11 07:16:12;;;;;;;;;;;;;;;7.19;45.16;99320.78;4824641;29;19928;-72
2021/03/11 07:18:39;;;;;;;;;;;;;;;7.18;45.00;99329.59;4826518;29;19961;-72
2021/03/11 07:21:06;;;;;;;;;;;;;;;7.22;44.96;99321.53;4823385;29;19929;-72
2021/03/11 07:23:43;;;;;;;;;;;;;;;7.25;44.51;99312.66;4818838;29;19933;-73
2021/03/11 07:26:10;;;;;;;;;;;;;;;7.27;44.80;99308.22;4818155;29;20029;-73
2021/03/11 07:28:44;;;;;;;;;;;;;;;7.25;44.92;99304.75;4821657;29;19967;-72
2021/03/11 07:31:12;;;;;;;;;;;;;;;7.27;44.68;99303.78;4819931;29;19933;-72
2021/03/11 07:33:39;;;;;;;;;;;;;;;7.30;44.55;99297.56;4825251;29;19936;-74
2021/03/11 07:36:06;;;;;;;;;;;;;;;7.32;44.87;99293.97;4820040;29;20449;-74
2021/03/11 07:38:34;;;;;;;;;;;;;;;7.31;44.75;99286.13;4817929;29;20501;-74
2021/03/11 07:41:02;;;;;;;;;;;;;;;7.29;44.81;99285.34;4817043;29;19964;-75
2021/03/11 07:43:31;;;;;;;;;;;;;;;7.26;45.01;99264.41;4813784;29;20012;-71
2021/03/11 07:45:59;;;;;;;;;;;;;;;7.30;44.95;99252.84;4804061;29;19958;-74
2021/03/11 07:48:27;;;;;;;;;;;;;;;7.31;44.46;99244.03;4806255;29;19944;-74
2021/03/11 07:50:55;;;;;;;;;;;;;;;7.28;44.66;99239.75;4827722;29;19935;-74
2021/03/11 07:53:22;;;;;;;;;;;;;;;7.29;44.89;99236.22;4799477;29;20685;-74
2021/03/11 07:55:49;;;;;;;;;;;;;;;7.28;44.91;99233.66;4818900;29;19932;-74
2021/03/11 07:58:37;;;;;;;;;;;;;;;7.29;44.96;99223.06;4822814;29;19936;-74
2021/03/11 08:01:06;;;;;;;;;;;;;;;7.33;44.94;99221.16;4805523;29;19958;-74
2021/03/11 08:03:36;;;;;;;;;;;;;;;7.35;44.98;99214.06;4825691;29;20477;-74
2021/03/11 08:06:18;;;;;;;;;;;;;;;7.32;44.86;99198.41;4820583;29;19933;-74
2021/03/11 08:08:46;;;;;;;;;;;;;;;7.32;45.41;99198.41;4818045;29;20397;-74
2021/03/11 08:11:30;;;;;;;;;;;;;;;7.32;44.81;99193.16;4822516;29;19944;-74
2021/03/11 08:14:13;;;;;;;;;;;;;;;7.26;45.55;99178.47;4825559;29;19932;-75
2021/03/11 08:16:39;;;;;;;;;;;;;;;7.26;45.38;99175.84;4806506;29;19933;-74
2021/03/11 08:19:08;;;;;;;;;;;;;;;7.32;44.91;99175.56;4810146;29;20318;-74
2021/03/11 08:21:46;;;;;;;;;;;;;;;7.31;44.97;99158.09;4822841;29;20056;-74
2021/03/11 08:24:31;;;;;;;;;;;;;;;7.37;44.92;99159.63;4819828;29;19933;-74
2021/03/11 08:26:58;;;;;;;;;;;;;;;7.34;45.07;99154.50;4814157;29;19990;-74
2021/03/11 08:29:33;;;;;;;;;;;;;;;7.31;45.08;99159.84;4821561;29;19933;-74
2021/03/11 08:32:00;;;;;;;;;;;;;;;7.28;45.28;99150.31;4825135;29;19933;-74
2021/03/11 08:34:39;;;;;;;;;;;;;;;7.27;45.37;99132.81;4825031;29;19937;-74
2021/03/11 08:37:19;;;;;;;;;;;;;;;7.24;45.82;99142.63;4810370;29;20856;-74
2021/03/11 08:39:46;;;;;;;;;;;;;;;7.26;45.34;99124.97;4818564;29;19938;-74
2021/03/11 08:42:45;;;;;;;;;;;;;;;7.25;45.63;99137.28;4822975;29;19967;-75
2021/03/11 08:45:12;;;;;;;;;;;;;;;7.26;45.50;99123.22;4820543;29;19940;-75
2021/03/11 08:47:54;;;;;;;;;;;;;;;7.28;45.39;99124.00;4819984;29;19936;-75
2021/03/11 08:50:35;;;;;;;;;;;;;;;7.32;45.52;99108.97;4816351;29;20008;-75
2021/03/11 08:53:02;;;;;;;;;;;;;;;7.30;45.42;99081.84;4803640;29;19933;-74
2021/03/11 08:55:36;;;;;;;;;;;;;;;7.28;45.53;99081.06;4825629;29;19960;-74
2021/03/11 08:58:04;;;;;;;;;;;;;;;7.27;45.71;99067.06;4821792;29;19936;-74
2021/03/11 09:00:49;;;;;;;;;;;;;;;7.23;45.80;99076.00;4825131;29;19932;-75
2021/03/11 09:03:36;;;;;;;;;;;;;;;7.22;46.10;99063.78;4817344;29;19928;-74
2021/03/11 09:06:07;;;;;;;;;;;;;;;7.28;45.89;99042.47;4820743;29;19936;-74
2021/03/11 09:08:36;;;;;;;;;;;;;;;7.29;45.52;99032.81;4822914;29;19933;-74
2021/03/11 09:11:10;;;;;;;;;;;;;;;7.34;45.60;99027.34;4813971;29;19980;-74
2021/03/11 09:13:39;;;;;;;;;;;;;;;7.32;45.23;99012.47;4829473;29;19935;-73
2021/03/11 09:16:06;;;;;;;;;;;;;;;7.28;45.83;99000.38;4828192;29;19976;-74
2021/03/11 09:18:34;;;;;;;;;;;;;;;7.26;45.60;98998.72;4820379;29;19933;-74
2021/03/11 09:21:03;;;;;;;;;;;;;;;7.25;46.01;98983.88;4826114;29;19933;-74
2021/03/11 09:23:35;;;;;;;;;;;;;;;7.25;45.59;98979.47;4825088;29;19932;-74
2021/03/11 09:26:02;;;;;;;;;;;;;;;7.23;46.01;98964.69;4826580;29;19972;-74
2021/03/11 09:28:29;;;;;;;;;;;;;;;7.23;46.06;98962.06;4825997;29;19943;-74
2021/03/11 09:30:56;;;;;;;;;;;;;;;7.23;46.20;98965.53;4825858;29;19933;-74
2021/03/11 09:33:24;;;;;;;;;;;;;;;7.22;46.06;98960.34;4819280;29;20418;-74
2021/03/11 09:35:51;;;;;;;;;;;;;;;7.23;46.18;98946.28;4829095;29;19933;-74
2021/03/11 09:38:19;;;;;;;;;;;;;;;7.19;46.18;98945.53;4828022;29;19994;-74
2021/03/11 09:40:49;;;;;;;;;;;;;;;7.17;46.35;98936.88;4821841;29;20057;-74
2021/03/11 09:43:21;;;;;;;;;;;;;;;7.18;46.33;98937.72;4828667;29;19933;-75
2021/03/11 09:45:50;;;;;;;;;;;;;;;7.18;46.53;98919.31;4820089;29;19933;-74
2021/03/11 09:48:19;;;;;;;;;;;;;;;7.20;46.33;98918.31;4816911;29;19964;-74
2021/03/11 09:50:58;;;;;;;;;;;;;;;7.20;46.62;98910.44;4804268;29;19933;-74
2021/03/11 09:53:31;;;;;;;;;;;;;;;7.21;46.16;98911.28;4810302;29;19939;-75
2021/03/11 09:55:59;;;;;;;;;;;;;;;7.20;46.23;98886.75;4827457;29;19971;-75
2021/03/11 09:58:26;;;;;;;;;;;;;;;7.18;46.62;98887.75;4828579;29;19940;-74
2021/03/11 10:00:53;;;;;;;;;;;;;;;7.15;46.53;98881.69;4817917;29;20495;-74
2021/03/11 10:03:21;;;;;;;;;;;;;;;7.12;46.36;98881.00;4821335;29;20443;-74
2021/03/11 10:05:56;;;;;;;;;;;;;;;7.10;46.75;98873.13;4829592;29;19932;-74
2021/03/11 10:08:24;;;;;;;;;;;;;;;7.10;46.42;98872.28;4819838;29;20078;-75
2021/03/11 10:10:59;;;;;;;;;;;;;;;7.08;46.67;98872.38;4825432;29;20426;-75
2021/03/11 10:13:32;;;;;;;;;;;;;;;7.08;46.88;98858.38;4818830;29;20024;-74
2021/03/11 10:16:00;;;;;;;;;;;;;;;7.11;46.99;98855.59;4820797;29;20544;-74
2021/03/11 10:18:28;;;;;;;;;;;;;;;7.19;46.28;98842.13;4826528;29;19940;-74
2021/03/11 10:21:02;;;;;;;;;;;;;;;7.19;46.66;98835.09;4825737;29;19960;-75
2021/03/11 10:23:29;;;;;;;;;;;;;;;7.25;46.54;98831.31;4826396;29;19937;-74
2021/03/11 10:26:26;;;;;;;;;;;;;;;7.30;46.37;98816.19;4825250;29;19952;-74
2021/03/11 10:29:04;;;;;;;;;;;;;;;7.25;46.33;98811.16;4763578;30;19976;-74
2021/03/11 10:31:31;;;;;;;;;;;;;;;7.18;46.76;98804.44;4814248;29;19993;-74
2021/03/11 10:34:05;;;;;;;;;;;;;;;7.14;47.35;98801.13;4825484;29;19933;-74
2021/03/11 10:36:32;;;;;;;;;;;;;;;7.29;45.63;98789.03;4824620;29;19929;-74
2021/03/11 10:39:07;;;;;;;;;;;;;;;7.42;44.24;98778.81;4806275;29;19949;-74
2021/03/11 10:41:34;;;;;;;;;;;;;;;7.56;43.52;98779.97;4824383;29;19992;-74
2021/03/11 10:44:10;;;;;;;;;;;;;;;7.61;42.10;98756.91;4820313;29;19939;-74
2021/03/11 10:46:38;;;;;;;;;;;;;;;7.60;41.44;98761.34;4824734;29;19935;-74
2021/03/11 10:49:06;;;;;;;;;;;;;;;7.62;41.11;98743.69;4825653;29;19953;-74
2021/03/11 10:51:33;;;;;;;;;;;;;;;7.67;40.70;98739.97;4824170;29;20106;-74
2021/03/11 10:54:00;;;;;;;;;;;;;;;7.70;40.66;98729.31;4810477;29;19940;-74
2021/03/11 10:56:28;;;;;;;;;;;;;;;7.78;39.99;98729.78;4816891;29;19929;-74
2021/03/11 10:59:02;;;;;;;;;;;;;;;7.81;40.33;98713.84;4807930;29;19932;-74
2021/03/11 11:01:31;;;;;;;;;;;;;;;7.67;41.38;98721.53;4825166;29;19932;-74
2021/03/11 11:03:59;;;;;;;;;;;;;;;7.58;42.50;98707.91;4820959;29;19999;-74
2021/03/11 11:06:28;;;;;;;;;;;;;;;7.54;42.97;98690.56;4814244;29;20768;-74
2021/03/11 11:08:55;;;;;;;;;;;;;;;7.62;42.43;98693.69;4807247;29;19936;-74
2021/03/11 11:11:22;;;;;;;;;;;;;;;7.69;41.75;98685.50;4814302;29;19933;-74
2021/03/11 11:13:50;;;;;;;;;;;;;;;7.77;40.92;98675.44;4823457;29;19968;-74
2021/03/11 11:16:17;;;;;;;;;;;;;;;7.85;39.73;98668.00;4825587;29;19932;-74
2021/03/11 11:18:45;;;;;;;;;;;;;;;7.98;39.22;98658.59;4824123;29;19962;-74
2021/03/11 11:21:14;;;;;;;;;;;;;;;8.09;38.42;98657.19;4825304;29;20560;-74
2021/03/11 11:23:41;;;;;;;;;;;;;;;8.17;38.19;98643.63;4823596;29;19928;-74
2021/03/11 11:26:10;;;;;;;;;;;;;;;8.08;38.79;98642.34;4816515;29;19937;-75
2021/03/11 11:28:37;;;;;;;;;;;;;;;7.95;39.09;98636.81;4821956;29;19933;-75
2021/03/11 11:31:05;;;;;;;;;;;;;;;7.87;40.15;98633.72;4822283;29;19933;-75
2021/03/11 11:33:32;;;;;;;;;;;;;;;7.71;40.80;98636.25;4824895;29;19933;-75
2021/03/11 11:36:00;;;;;;;;;;;;;;;7.62;41.03;98625.25;4820010;29;19936;-75
2021/03/11 11:38:27;;;;;;;;;;;;;;;7.62;41.08;98616.53;4822604;29;19929;-75
2021/03/11 11:40:54;;;;;;;;;;;;;;;7.63;41.44;98621.69;4823001;29;19929;-75
2021/03/11 11:43:21;;;;;;;;;;;;;;;7.65;42.04;98597.94;4809739;29;20490;-75
2021/03/11 11:45:48;;;;;;;;;;;;;;;7.65;42.14;98598.78;4822420;29;19943;-75
2021/03/11 11:48:15;;;;;;;;;;;;;;;7.64;42.54;98585.69;4827609;29;19928;-75
2021/03/11 11:50:47;;;;;;;;;;;;;;;7.71;42.50;98579.22;4822646;29;19936;-75
2021/03/11 11:53:15;;;;;;;;;;;;;;;7.72;43.13;98578.28;4807442;29;19932;-76
2021/03/11 11:55:43;;;;;;;;;;;;;;;7.68;42.99;98579.34;4825072;29;20006;-76
2021/03/11 11:58:10;;;;;;;;;;;;;;;7.64;43.55;98562.88;4812701;29;20644;-75
2021/03/11 12:00:36;;;;;;;;;;;;;;;7.68;43.91;98552.19;4823746;29;20000;-75
2021/03/11 12:03:05;;;;;;;;;;;;;;;7.71;44.26;98558.16;4826947;29;19929;-76
2021/03/11 12:05:32;;;;;;;;;;;;;;;7.79;44.08;98544.63;4823996;29;19929;-76
2021/03/11 12:08:00;;;;;;;;;;;;;;;7.89;43.84;98542.34;4816860;29;19980;-76
2021/03/11 12:10:28;;;;;;;;;;;;;;;7.88;44.00;98536.25;4811530;29;19935;-76
2021/03/11 12:12:55;;;;;;;;;;;;;;;7.91;44.07;98525.53;4822241;29;19968;-76
2021/03/11 12:15:22;;;;;;;;;;;;;;;7.95;44.18;98521.81;4823774;29;19958;-76
2021/03/11 12:17:49;;;;;;;;;;;;;;;8.04;44.24;98517.03;4808013;29;19962;-76
2021/03/11 12:20:32;;;;;;;;;;;;;;;8.09;44.21;98525.50;4824866;29;19954;-76
2021/03/11 12:22:58;;;;;;;;;;;;;;;8.11;44.40;98515.75;4821009;29;19929;-76
2021/03/11 12:25:26;;;;;;;;;;;;;;;8.05;45.30;98511.69;4827050;29;19940;-77
2021/03/11 12:27:53;;;;;;;;;;;;;;;8.08;45.36;98508.03;4808534;29;19937;-76
2021/03/11 12:30:21;;;;;;;;;;;;;;;8.06;45.48;98497.56;4819077;29;19972;-76
2021/03/11 12:32:48;;;;;;;;;;;;;;;8.13;45.79;98503.38;4821089;29;19964;-77
2021/03/11 12:35:16;;;;;;;;;;;;;;;8.20;45.11;98488.94;4801787;29;19940;-76
2021/03/11 12:37:43;;;;;;;;;;;;;;;8.23;45.37;98494.03;4809769;29;19932;-76
2021/03/11 12:40:11;;;;;;;;;;;;;;;8.35;45.27;98491.66;4822227;29;19936;-76
2021/03/11 12:42:39;;;;;;;;;;;;;;;8.54;45.30;98481.84;4816560;29;20602;-76
2021/03/11 12:45:08;;;;;;;;;;;;;;;8.51;45.62;98462.72;4800450;29;20480;-76
2021/03/11 12:47:35;;;;;;;;;;;;;;;8.44;45.66;98460.41;4820975;29;20405;-76
2021/03/11 12:50:03;;;;;;;;;;;;;;;8.35;45.66;98457.41;4822948;29;19932;-76
2021/03/11 12:52:32;;;;;;;;;;;;;;;8.35;45.98;98450.34;4823281;29;19936;-76
2021/03/11 12:55:00;;;;;;;;;;;;;;;8.51;45.66;98444.28;4824917;29;19936;-76
2021/03/11 12:57:27;;;;;;;;;;;;;;;8.76;45.19;98438.47;4826278;29;19932;-76
2021/03/11 12:59:54;;;;;;;;;;;;;;;8.90;45.34;98427.97;4818812;29;19940;-76
2021/03/11 13:02:22;;;;;;;;;;;;;;;8.79;46.31;98427.78;4806594;29;20051;-76
2021/03/11 13:04:49;;;;;;;;;;;;;;;8.70;45.80;98423.88;4816095;29;19937;-75